sensor_id;sensor_type;location;lat;lon;timestamp;P1;durP1;ratioP1;P2;durP2;ratioP2
70253;SDS011;57649;42.968;1.608;2022-11-02T00:00:27;6.38;;;2.20;;
70253;SDS011;57649;42.968;1.608;2022-11-02T00:02:54;6.88;;;2.40;;
70253;SDS011;57649;42.968;1.608;2022-11-02T00:05:20;7.35;;;2.97;;
70253;SDS011;57649;42.968;1.608;2022-11-02T00:07:48;6.50;;;2.90;;
70253;SDS011;57649;42.968;1.608;2022-11-02T00:10:15;6.47;;;2.65;;
70253;SDS011;57649;42.968;1.608;2022-11-02T00:12:40;6.40;;;2.83;;
70253;SDS011;57649;42.968;1.608;2022-11-02T00:15:06;5.47;;;2.58;;
70253;SDS011;57649;42.968;1.608;2022-11-02T00:17:32;5.40;;;2.30;;
70253;SDS011;57649;42.968;1.608;2022-11-02T00:19:59;3.85;;;1.90;;
70253;SDS011;57649;42.968;1.608;2022-11-02T00:22:26;5.47;;;2.30;;
70253;SDS011;57649;42.968;1.608;2022-11-02T00:24:51;5.28;;;2.40;;
70253;SDS011;57649;42.968;1.608;2022-11-02T00:27:17;9.25;;;2.50;;
70253;SDS011;57649;42.968;1.608;2022-11-02T00:29:43;4.85;;;2.28;;
70253;SDS011;57649;42.968;1.608;2022-11-02T00:32:08;4.68;;;2.17;;
70253;SDS011;57649;42.968;1.608;2022-11-02T00:34:34;8.93;;;2.50;;
70253;SDS011;57649;42.968;1.608;2022-11-02T00:36:59;4.10;;;2.10;;
70253;SDS011;57649;42.968;1.608;2022-11-02T00:39:24;7.53;;;2.50;;
70253;SDS011;57649;42.968;1.608;2022-11-02T00:41:50;4.90;;;2.28;;
70253;SDS011;57649;42.968;1.608;2022-11-02T00:44:15;5.43;;;2.00;;
70253;SDS011;57649;42.968;1.608;2022-11-02T00:46:40;6.65;;;2.55;;
70253;SDS011;57649;42.968;1.608;2022-11-02T00:49:06;5.28;;;2.65;;
70253;SDS011;57649;42.968;1.608;2022-11-02T00:51:31;4.55;;;2.20;;
70253;SDS011;57649;42.968;1.608;2022-11-02T00:53:56;3.63;;;1.92;;
70253;SDS011;57649;42.968;1.608;2022-11-02T00:56:22;6.97;;;2.40;;
70253;SDS011;57649;42.968;1.608;2022-11-02T00:58:47;5.97;;;2.05;;
70253;SDS011;57649;42.968;1.608;2022-11-02T01:01:13;3.70;;;1.70;;
70253;SDS011;57649;42.968;1.608;2022-11-02T01:03:38;6.43;;;2.20;;
70253;SDS011;57649;42.968;1.608;2022-11-02T01:06:10;6.07;;;2.38;;
70253;SDS011;57649;42.968;1.608;2022-11-02T01:08:38;6.45;;;2.55;;
70253;SDS011;57649;42.968;1.608;2022-11-02T01:11:08;6.07;;;2.47;;
70253;SDS011;57649;42.968;1.608;2022-11-02T01:13:39;7.55;;;2.85;;
70253;SDS011;57649;42.968;1.608;2022-11-02T01:16:04;6.22;;;2.60;;
70253;SDS011;57649;42.968;1.608;2022-11-02T01:18:30;6.05;;;2.30;;
70253;SDS011;57649;42.968;1.608;2022-11-02T01:20:56;7.50;;;2.38;;
70253;SDS011;57649;42.968;1.608;2022-11-02T01:23:22;7.40;;;2.50;;
70253;SDS011;57649;42.968;1.608;2022-11-02T01:25:48;8.40;;;2.83;;
70253;SDS011;57649;42.968;1.608;2022-11-02T01:28:13;7.65;;;2.58;;
70253;SDS011;57649;42.968;1.608;2022-11-02T01:30:39;7.18;;;2.58;;
70253;SDS011;57649;42.968;1.608;2022-11-02T01:33:04;6.82;;;2.38;;
70253;SDS011;57649;42.968;1.608;2022-11-02T01:35:30;4.70;;;2.33;;
70253;SDS011;57649;42.968;1.608;2022-11-02T01:37:56;11.07;;;2.75;;
70253;SDS011;57649;42.968;1.608;2022-11-02T01:40:21;6.22;;;2.30;;
70253;SDS011;57649;42.968;1.608;2022-11-02T01:42:47;5.38;;;2.70;;
70253;SDS011;57649;42.968;1.608;2022-11-02T01:45:12;8.10;;;2.60;;
70253;SDS011;57649;42.968;1.608;2022-11-02T01:47:39;7.40;;;2.28;;
70253;SDS011;57649;42.968;1.608;2022-11-02T01:50:12;4.32;;;2.40;;
70253;SDS011;57649;42.968;1.608;2022-11-02T01:52:43;5.07;;;2.40;;
70253;SDS011;57649;42.968;1.608;2022-11-02T01:57:34;5.57;;;2.38;;
70253;SDS011;57649;42.968;1.608;2022-11-02T02:00:08;5.03;;;2.20;;
70253;SDS011;57649;42.968;1.608;2022-11-02T02:02:41;5.93;;;2.47;;
70253;SDS011;57649;42.968;1.608;2022-11-02T02:05:14;4.68;;;2.45;;
70253;SDS011;57649;42.968;1.608;2022-11-02T02:07:41;5.07;;;2.70;;
70253;SDS011;57649;42.968;1.608;2022-11-02T02:10:08;9.32;;;2.80;;
70253;SDS011;57649;42.968;1.608;2022-11-02T02:12:33;5.20;;;2.00;;
70253;SDS011;57649;42.968;1.608;2022-11-02T02:15:01;5.13;;;1.98;;
70253;SDS011;57649;42.968;1.608;2022-11-02T02:17:31;4.70;;;2.33;;
70253;SDS011;57649;42.968;1.608;2022-11-02T02:31:24;8.25;;;2.33;;
70253;SDS011;57649;42.968;1.608;2022-11-02T02:34:33;6.50;;;2.60;;
70253;SDS011;57649;42.968;1.608;2022-11-02T02:37:07;4.18;;;1.98;;
70253;SDS011;57649;42.968;1.608;2022-11-02T02:45:14;8.60;;;2.65;;
70253;SDS011;57649;42.968;1.608;2022-11-02T02:47:57;5.63;;;2.10;;
70253;SDS011;57649;42.968;1.608;2022-11-02T02:50:29;5.47;;;2.13;;
70253;SDS011;57649;42.968;1.608;2022-11-02T02:53:00;5.05;;;1.77;;
70253;SDS011;57649;42.968;1.608;2022-11-02T02:55:30;7.53;;;1.92;;
70253;SDS011;57649;42.968;1.608;2022-11-02T02:58:01;7.15;;;2.08;;
70253;SDS011;57649;42.968;1.608;2022-11-02T03:00:27;6.55;;;1.70;;
70253;SDS011;57649;42.968;1.608;2022-11-02T03:02:55;6.18;;;2.30;;
70253;SDS011;57649;42.968;1.608;2022-11-02T03:08:05;9.68;;;1.65;;
70253;SDS011;57649;42.968;1.608;2022-11-02T03:21:53;5.82;;;1.88;;
70253;SDS011;57649;42.968;1.608;2022-11-02T03:24:40;5.05;;;1.77;;
70253;SDS011;57649;42.968;1.608;2022-11-02T03:32:39;5.80;;;1.38;;
70253;SDS011;57649;42.968;1.608;2022-11-02T03:35:19;5.80;;;2.08;;
70253;SDS011;57649;42.968;1.608;2022-11-02T03:38:55;4.90;;;1.70;;
70253;SDS011;57649;42.968;1.608;2022-11-02T03:41:00;5.43;;;1.60;;
70253;SDS011;57649;42.968;1.608;2022-11-02T03:43:29;7.20;;;1.98;;
70253;SDS011;57649;42.968;1.608;2022-11-02T03:48:28;5.53;;;1.80;;
70253;SDS011;57649;42.968;1.608;2022-11-02T03:50:56;5.22;;;2.00;;
70253;SDS011;57649;42.968;1.608;2022-11-02T03:55:59;7.93;;;2.05;;
70253;SDS011;57649;42.968;1.608;2022-11-02T03:58:32;5.22;;;1.40;;
70253;SDS011;57649;42.968;1.608;2022-11-02T04:01:02;6.32;;;1.60;;
70253;SDS011;57649;42.968;1.608;2022-11-02T04:05:56;6.88;;;1.67;;
70253;SDS011;57649;42.968;1.608;2022-11-02T04:08:25;7.15;;;1.45;;
70253;SDS011;57649;42.968;1.608;2022-11-02T04:10:57;4.57;;;1.70;;
70253;SDS011;57649;42.968;1.608;2022-11-02T04:13:41;8.70;;;1.83;;
70253;SDS011;57649;42.968;1.608;2022-11-02T04:16:25;3.22;;;1.52;;
70253;SDS011;57649;42.968;1.608;2022-11-02T04:18:50;5.57;;;1.92;;
70253;SDS011;57649;42.968;1.608;2022-11-02T04:21:34;6.80;;;2.00;;
70253;SDS011;57649;42.968;1.608;2022-11-02T04:23:59;3.10;;;1.40;;
70253;SDS011;57649;42.968;1.608;2022-11-02T04:26:43;4.47;;;1.63;;
70253;SDS011;57649;42.968;1.608;2022-11-02T04:29:09;6.20;;;1.58;;
70253;SDS011;57649;42.968;1.608;2022-11-02T04:31:35;6.00;;;1.70;;
70253;SDS011;57649;42.968;1.608;2022-11-02T04:34:00;4.57;;;1.50;;
70253;SDS011;57649;42.968;1.608;2022-11-02T04:36:29;5.57;;;1.65;;
70253;SDS011;57649;42.968;1.608;2022-11-02T04:38:55;4.63;;;1.70;;
70253;SDS011;57649;42.968;1.608;2022-11-02T04:41:21;4.85;;;1.50;;
70253;SDS011;57649;42.968;1.608;2022-11-02T04:44:06;5.45;;;1.50;;
70253;SDS011;57649;42.968;1.608;2022-11-02T04:46:33;4.03;;;1.63;;
70253;SDS011;57649;42.968;1.608;2022-11-02T04:49:00;6.20;;;1.73;;
70253;SDS011;57649;42.968;1.608;2022-11-02T04:51:26;6.32;;;1.67;;
70253;SDS011;57649;42.968;1.608;2022-11-02T04:53:54;8.40;;;1.83;;
70253;SDS011;57649;42.968;1.608;2022-11-02T04:56:20;6.03;;;1.55;;
70253;SDS011;57649;42.968;1.608;2022-11-02T04:58:47;6.05;;;1.80;;
70253;SDS011;57649;42.968;1.608;2022-11-02T05:01:14;6.65;;;2.47;;
70253;SDS011;57649;42.968;1.608;2022-11-02T05:03:40;6.70;;;1.73;;
70253;SDS011;57649;42.968;1.608;2022-11-02T05:06:06;7.40;;;1.80;;
70253;SDS011;57649;42.968;1.608;2022-11-02T05:08:33;3.83;;;1.50;;
70253;SDS011;57649;42.968;1.608;2022-11-02T05:11:00;7.30;;;2.70;;
70253;SDS011;57649;42.968;1.608;2022-11-02T05:13:25;7.30;;;1.73;;
70253;SDS011;57649;42.968;1.608;2022-11-02T05:15:54;5.72;;;2.13;;
70253;SDS011;57649;42.968;1.608;2022-11-02T05:18:20;6.97;;;1.95;;
70253;SDS011;57649;42.968;1.608;2022-11-02T05:20:49;7.82;;;1.77;;
70253;SDS011;57649;42.968;1.608;2022-11-02T05:23:16;6.40;;;2.00;;
70253;SDS011;57649;42.968;1.608;2022-11-02T05:25:50;7.78;;;2.10;;
70253;SDS011;57649;42.968;1.608;2022-11-02T05:28:20;7.68;;;1.52;;
70253;SDS011;57649;42.968;1.608;2022-11-02T05:30:45;9.50;;;2.00;;
70253;SDS011;57649;42.968;1.608;2022-11-02T05:33:11;9.45;;;2.13;;
70253;SDS011;57649;42.968;1.608;2022-11-02T05:35:36;6.28;;;1.70;;
70253;SDS011;57649;42.968;1.608;2022-11-02T05:38:01;4.63;;;2.20;;
70253;SDS011;57649;42.968;1.608;2022-11-02T05:40:27;4.80;;;1.58;;
70253;SDS011;57649;42.968;1.608;2022-11-02T05:42:59;6.45;;;1.73;;
70253;SDS011;57649;42.968;1.608;2022-11-02T05:45:25;6.93;;;1.88;;
70253;SDS011;57649;42.968;1.608;2022-11-02T05:47:51;6.60;;;1.70;;
70253;SDS011;57649;42.968;1.608;2022-11-02T05:50:17;6.18;;;2.10;;
70253;SDS011;57649;42.968;1.608;2022-11-02T05:52:42;8.48;;;2.00;;
70253;SDS011;57649;42.968;1.608;2022-11-02T05:55:08;5.93;;;1.70;;
70253;SDS011;57649;42.968;1.608;2022-11-02T05:57:33;7.28;;;1.85;;
70253;SDS011;57649;42.968;1.608;2022-11-02T05:59:58;6.95;;;2.28;;
70253;SDS011;57649;42.968;1.608;2022-11-02T06:02:24;6.32;;;1.85;;
70253;SDS011;57649;42.968;1.608;2022-11-02T06:04:50;6.97;;;2.25;;
70253;SDS011;57649;42.968;1.608;2022-11-02T06:07:15;6.05;;;1.60;;
70253;SDS011;57649;42.968;1.608;2022-11-02T06:09:41;6.55;;;2.00;;
70253;SDS011;57649;42.968;1.608;2022-11-02T06:12:06;7.13;;;1.95;;
70253;SDS011;57649;42.968;1.608;2022-11-02T06:14:32;7.90;;;1.88;;
70253;SDS011;57649;42.968;1.608;2022-11-02T06:16:57;7.40;;;1.80;;
70253;SDS011;57649;42.968;1.608;2022-11-02T06:19:22;9.25;;;2.00;;
70253;SDS011;57649;42.968;1.608;2022-11-02T06:21:48;4.82;;;1.50;;
70253;SDS011;57649;42.968;1.608;2022-11-02T06:24:13;7.68;;;2.15;;
70253;SDS011;57649;42.968;1.608;2022-11-02T06:26:39;7.80;;;1.60;;
70253;SDS011;57649;42.968;1.608;2022-11-02T06:29:04;7.85;;;2.38;;
70253;SDS011;57649;42.968;1.608;2022-11-02T06:31:30;7.65;;;2.40;;
70253;SDS011;57649;42.968;1.608;2022-11-02T06:33:55;7.15;;;2.20;;
70253;SDS011;57649;42.968;1.608;2022-11-02T06:36:21;6.80;;;2.67;;
70253;SDS011;57649;42.968;1.608;2022-11-02T06:38:46;7.28;;;2.00;;
70253;SDS011;57649;42.968;1.608;2022-11-02T06:41:12;5.70;;;1.95;;
70253;SDS011;57649;42.968;1.608;2022-11-02T06:43:37;6.60;;;2.22;;
70253;SDS011;57649;42.968;1.608;2022-11-02T06:46:03;5.20;;;1.70;;
70253;SDS011;57649;42.968;1.608;2022-11-02T06:48:29;7.57;;;2.63;;
70253;SDS011;57649;42.968;1.608;2022-11-02T06:50:55;8.88;;;2.03;;
70253;SDS011;57649;42.968;1.608;2022-11-02T06:53:21;7.28;;;1.92;;
70253;SDS011;57649;42.968;1.608;2022-11-02T06:55:53;6.95;;;1.90;;
70253;SDS011;57649;42.968;1.608;2022-11-02T06:58:20;9.18;;;1.95;;
70253;SDS011;57649;42.968;1.608;2022-11-02T07:00:47;3.80;;;1.60;;
70253;SDS011;57649;42.968;1.608;2022-11-02T07:03:12;4.95;;;1.92;;
70253;SDS011;57649;42.968;1.608;2022-11-02T07:05:38;6.00;;;2.67;;
70253;SDS011;57649;42.968;1.608;2022-11-02T07:08:03;7.38;;;2.30;;
70253;SDS011;57649;42.968;1.608;2022-11-02T07:10:29;7.70;;;2.25;;
70253;SDS011;57649;42.968;1.608;2022-11-02T07:12:55;8.07;;;2.10;;
70253;SDS011;57649;42.968;1.608;2022-11-02T07:15:22;9.35;;;2.30;;
70253;SDS011;57649;42.968;1.608;2022-11-02T07:17:48;9.95;;;2.70;;
70253;SDS011;57649;42.968;1.608;2022-11-02T07:20:14;7.43;;;2.33;;
70253;SDS011;57649;42.968;1.608;2022-11-02T07:22:40;9.38;;;2.75;;
70253;SDS011;57649;42.968;1.608;2022-11-02T07:25:06;10.65;;;2.92;;
70253;SDS011;57649;42.968;1.608;2022-11-02T07:27:36;5.70;;;2.40;;
70253;SDS011;57649;42.968;1.608;2022-11-02T07:30:03;8.38;;;2.30;;
70253;SDS011;57649;42.968;1.608;2022-11-02T07:32:29;11.52;;;3.45;;
70253;SDS011;57649;42.968;1.608;2022-11-02T07:34:54;8.23;;;2.72;;
70253;SDS011;57649;42.968;1.608;2022-11-02T07:37:19;9.82;;;3.10;;
70253;SDS011;57649;42.968;1.608;2022-11-02T07:39:45;11.15;;;3.28;;
70253;SDS011;57649;42.968;1.608;2022-11-02T07:42:10;9.32;;;4.47;;
70253;SDS011;57649;42.968;1.608;2022-11-02T07:44:36;9.48;;;3.05;;
70253;SDS011;57649;42.968;1.608;2022-11-02T07:47:01;7.82;;;2.42;;
70253;SDS011;57649;42.968;1.608;2022-11-02T07:49:27;6.35;;;2.35;;
70253;SDS011;57649;42.968;1.608;2022-11-02T07:51:52;8.88;;;2.35;;
70253;SDS011;57649;42.968;1.608;2022-11-02T07:54:20;8.48;;;2.00;;
70253;SDS011;57649;42.968;1.608;2022-11-02T07:56:45;8.63;;;3.00;;
70253;SDS011;57649;42.968;1.608;2022-11-02T07:59:11;7.15;;;1.70;;
70253;SDS011;57649;42.968;1.608;2022-11-02T08:01:37;14.13;;;2.60;;
70253;SDS011;57649;42.968;1.608;2022-11-02T08:04:02;9.07;;;2.30;;
70253;SDS011;57649;42.968;1.608;2022-11-02T08:06:28;9.43;;;2.30;;
70253;SDS011;57649;42.968;1.608;2022-11-02T08:08:53;11.80;;;2.42;;
70253;SDS011;57649;42.968;1.608;2022-11-02T08:11:19;4.20;;;1.80;;
70253;SDS011;57649;42.968;1.608;2022-11-02T08:13:44;7.45;;;2.83;;
70253;SDS011;57649;42.968;1.608;2022-11-02T08:16:09;7.25;;;1.85;;
70253;SDS011;57649;42.968;1.608;2022-11-02T08:18:35;5.53;;;1.70;;
70253;SDS011;57649;42.968;1.608;2022-11-02T08:21:00;10.80;;;2.88;;
70253;SDS011;57649;42.968;1.608;2022-11-02T08:23:26;7.47;;;1.95;;
70253;SDS011;57649;42.968;1.608;2022-11-02T08:25:52;8.73;;;2.00;;
70253;SDS011;57649;42.968;1.608;2022-11-02T08:28:23;6.40;;;2.22;;
70253;SDS011;57649;42.968;1.608;2022-11-02T08:30:50;11.82;;;2.15;;
70253;SDS011;57649;42.968;1.608;2022-11-02T08:33:17;9.68;;;2.55;;
70253;SDS011;57649;42.968;1.608;2022-11-02T08:35:44;11.40;;;2.85;;
70253;SDS011;57649;42.968;1.608;2022-11-02T08:38:10;9.15;;;2.28;;
70253;SDS011;57649;42.968;1.608;2022-11-02T08:40:36;10.55;;;2.13;;
70253;SDS011;57649;42.968;1.608;2022-11-02T08:43:02;8.50;;;2.40;;
70253;SDS011;57649;42.968;1.608;2022-11-02T08:45:33;6.43;;;2.13;;
70253;SDS011;57649;42.968;1.608;2022-11-02T08:47:59;9.88;;;1.90;;
70253;SDS011;57649;42.968;1.608;2022-11-02T08:50:26;9.45;;;2.08;;
70253;SDS011;57649;42.968;1.608;2022-11-02T08:52:51;10.75;;;2.38;;
70253;SDS011;57649;42.968;1.608;2022-11-02T08:55:17;6.32;;;2.10;;
70253;SDS011;57649;42.968;1.608;2022-11-02T08:58:04;6.22;;;2.10;;
70253;SDS011;57649;42.968;1.608;2022-11-02T09:00:29;6.60;;;2.30;;
70253;SDS011;57649;42.968;1.608;2022-11-02T09:03:09;10.70;;;2.40;;
70253;SDS011;57649;42.968;1.608;2022-11-02T09:05:43;7.05;;;2.40;;
70253;SDS011;57649;42.968;1.608;2022-11-02T09:08:11;9.77;;;3.25;;
70253;SDS011;57649;42.968;1.608;2022-11-02T09:10:38;8.98;;;3.00;;
70253;SDS011;57649;42.968;1.608;2022-11-02T09:13:04;6.47;;;2.00;;
70253;SDS011;57649;42.968;1.608;2022-11-02T09:15:32;7.68;;;2.20;;
70253;SDS011;57649;42.968;1.608;2022-11-02T09:17:59;10.82;;;2.20;;
70253;SDS011;57649;42.968;1.608;2022-11-02T09:20:25;7.03;;;2.47;;
70253;SDS011;57649;42.968;1.608;2022-11-02T09:22:51;8.95;;;2.90;;
70253;SDS011;57649;42.968;1.608;2022-11-02T09:25:16;7.10;;;1.92;;
70253;SDS011;57649;42.968;1.608;2022-11-02T09:27:42;9.38;;;4.22;;
70253;SDS011;57649;42.968;1.608;2022-11-02T09:30:09;8.23;;;2.22;;
70253;SDS011;57649;42.968;1.608;2022-11-02T09:32:35;9.30;;;2.38;;
70253;SDS011;57649;42.968;1.608;2022-11-02T09:35:03;8.48;;;2.58;;
70253;SDS011;57649;42.968;1.608;2022-11-02T09:37:31;9.57;;;2.53;;
70253;SDS011;57649;42.968;1.608;2022-11-02T09:39:56;8.95;;;2.33;;
70253;SDS011;57649;42.968;1.608;2022-11-02T09:42:29;8.77;;;1.95;;
70253;SDS011;57649;42.968;1.608;2022-11-02T09:45:05;6.25;;;2.17;;
70253;SDS011;57649;42.968;1.608;2022-11-02T09:47:40;9.20;;;3.30;;
70253;SDS011;57649;42.968;1.608;2022-11-02T09:50:15;9.15;;;2.92;;
70253;SDS011;57649;42.968;1.608;2022-11-02T09:52:49;7.20;;;2.28;;
70253;SDS011;57649;42.968;1.608;2022-11-02T09:55:22;6.63;;;1.83;;
70253;SDS011;57649;42.968;1.608;2022-11-02T09:57:54;6.57;;;1.85;;
70253;SDS011;57649;42.968;1.608;2022-11-02T10:00:26;7.97;;;2.35;;
70253;SDS011;57649;42.968;1.608;2022-11-02T10:03:08;6.18;;;1.88;;
70253;SDS011;57649;42.968;1.608;2022-11-02T10:06:07;5.63;;;1.65;;
70253;SDS011;57649;42.968;1.608;2022-11-02T10:09:23;5.55;;;1.95;;
70253;SDS011;57649;42.968;1.608;2022-11-02T10:11:52;6.45;;;2.05;;
70253;SDS011;57649;42.968;1.608;2022-11-02T10:14:28;3.47;;;1.48;;
70253;SDS011;57649;42.968;1.608;2022-11-02T10:19:38;7.07;;;2.00;;
70253;SDS011;57649;42.968;1.608;2022-11-02T10:22:07;10.27;;;3.20;;
70253;SDS011;57649;42.968;1.608;2022-11-02T10:24:43;8.10;;;2.03;;
70253;SDS011;57649;42.968;1.608;2022-11-02T10:27:20;3.33;;;1.35;;
70253;SDS011;57649;42.968;1.608;2022-11-02T10:30:05;4.93;;;1.80;;
70253;SDS011;57649;42.968;1.608;2022-11-02T10:32:38;4.43;;;1.77;;
70253;SDS011;57649;42.968;1.608;2022-11-02T10:35:14;4.97;;;1.83;;
70253;SDS011;57649;42.968;1.608;2022-11-02T10:41:27;8.60;;;1.75;;
70253;SDS011;57649;42.968;1.608;2022-11-02T10:46:23;5.63;;;2.15;;
70253;SDS011;57649;42.968;1.608;2022-11-02T10:49:00;4.85;;;1.42;;
70253;SDS011;57649;42.968;1.608;2022-11-02T10:51:33;7.10;;;1.60;;
70253;SDS011;57649;42.968;1.608;2022-11-02T10:53:58;5.00;;;1.77;;
70253;SDS011;57649;42.968;1.608;2022-11-02T10:56:28;5.07;;;1.58;;
70253;SDS011;57649;42.968;1.608;2022-11-02T11:01:24;9.68;;;1.85;;
70253;SDS011;57649;42.968;1.608;2022-11-02T11:06:24;13.63;;;2.45;;
70253;SDS011;57649;42.968;1.608;2022-11-02T11:08:52;7.55;;;2.05;;
70253;SDS011;57649;42.968;1.608;2022-11-02T11:11:24;3.38;;;1.85;;
70253;SDS011;57649;42.968;1.608;2022-11-02T11:14:03;4.93;;;1.40;;
70253;SDS011;57649;42.968;1.608;2022-11-02T11:16:41;7.25;;;1.63;;
70253;SDS011;57649;42.968;1.608;2022-11-02T11:21:51;2.55;;;1.25;;
70253;SDS011;57649;42.968;1.608;2022-11-02T11:24:18;4.45;;;1.10;;
70253;SDS011;57649;42.968;1.608;2022-11-02T11:29:38;5.55;;;1.35;;
70253;SDS011;57649;42.968;1.608;2022-11-02T11:32:11;5.18;;;1.23;;
70253;SDS011;57649;42.968;1.608;2022-11-02T11:34:39;3.72;;;1.27;;
70253;SDS011;57649;42.968;1.608;2022-11-02T11:37:08;4.82;;;1.90;;
70253;SDS011;57649;42.968;1.608;2022-11-02T11:39:36;4.40;;;1.00;;
70253;SDS011;57649;42.968;1.608;2022-11-02T11:42:04;3.80;;;1.20;;
70253;SDS011;57649;42.968;1.608;2022-11-02T11:44:43;4.53;;;1.23;;
70253;SDS011;57649;42.968;1.608;2022-11-02T11:47:22;7.70;;;1.75;;
70253;SDS011;57649;42.968;1.608;2022-11-02T11:50:12;3.88;;;1.13;;
70253;SDS011;57649;42.968;1.608;2022-11-02T11:52:40;6.72;;;1.73;;
70253;SDS011;57649;42.968;1.608;2022-11-02T12:03:27;5.68;;;1.52;;
70253;SDS011;57649;42.968;1.608;2022-11-02T12:08:33;4.57;;;1.20;;
70253;SDS011;57649;42.968;1.608;2022-11-02T12:14:03;4.25;;;1.35;;
70253;SDS011;57649;42.968;1.608;2022-11-02T12:19:35;1.88;;;1.00;;
70253;SDS011;57649;42.968;1.608;2022-11-02T12:36:31;3.47;;;1.05;;
70253;SDS011;57649;42.968;1.608;2022-11-02T12:39:30;3.47;;;1.42;;
70253;SDS011;57649;42.968;1.608;2022-11-02T12:50:20;5.32;;;2.22;;
70253;SDS011;57649;42.968;1.608;2022-11-02T12:56:01;3.13;;;1.05;;
70253;SDS011;57649;42.968;1.608;2022-11-02T12:58:30;3.47;;;1.43;;
70253;SDS011;57649;42.968;1.608;2022-11-02T13:01:00;4.07;;;1.80;;
70253;SDS011;57649;42.968;1.608;2022-11-02T13:03:49;3.97;;;1.25;;
70253;SDS011;57649;42.968;1.608;2022-11-02T13:06:27;6.57;;;1.33;;
70253;SDS011;57649;42.968;1.608;2022-11-02T13:09:01;4.18;;;1.88;;
70253;SDS011;57649;42.968;1.608;2022-11-02T13:11:50;4.22;;;1.90;;
70253;SDS011;57649;42.968;1.608;2022-11-02T13:14:22;2.28;;;1.15;;
70253;SDS011;57649;42.968;1.608;2022-11-02T13:17:02;3.28;;;1.10;;
70253;SDS011;57649;42.968;1.608;2022-11-02T13:19:42;3.70;;;1.02;;
70253;SDS011;57649;42.968;1.608;2022-11-02T13:22:12;5.45;;;1.63;;
70253;SDS011;57649;42.968;1.608;2022-11-02T13:24:42;4.68;;;1.50;;
70253;SDS011;57649;42.968;1.608;2022-11-02T13:27:36;6.18;;;1.60;;
70253;SDS011;57649;42.968;1.608;2022-11-02T13:30:14;5.20;;;1.40;;
70253;SDS011;57649;42.968;1.608;2022-11-02T13:32:44;3.95;;;1.40;;
70253;SDS011;57649;42.968;1.608;2022-11-02T13:35:18;3.92;;;1.30;;
70253;SDS011;57649;42.968;1.608;2022-11-02T13:37:52;3.20;;;1.50;;
70253;SDS011;57649;42.968;1.608;2022-11-02T13:40:23;4.60;;;1.50;;
70253;SDS011;57649;42.968;1.608;2022-11-02T13:45:57;4.57;;;1.27;;
70253;SDS011;57649;42.968;1.608;2022-11-02T13:48:46;3.28;;;1.40;;
70253;SDS011;57649;42.968;1.608;2022-11-02T13:54:12;4.63;;;1.15;;
70253;SDS011;57649;42.968;1.608;2022-11-02T13:56:38;4.82;;;1.40;;
70253;SDS011;57649;42.968;1.608;2022-11-02T13:59:06;3.78;;;1.35;;
70253;SDS011;57649;42.968;1.608;2022-11-02T14:01:34;1.17;;;0.80;;
70253;SDS011;57649;42.968;1.608;2022-11-02T14:04:05;4.75;;;1.45;;
70253;SDS011;57649;42.968;1.608;2022-11-02T14:06:41;3.10;;;1.00;;
70253;SDS011;57649;42.968;1.608;2022-11-02T14:09:19;4.15;;;1.30;;
70253;SDS011;57649;42.968;1.608;2022-11-02T14:11:51;7.35;;;2.13;;
70253;SDS011;57649;42.968;1.608;2022-11-02T14:30:47;4.25;;;1.30;;
70253;SDS011;57649;42.968;1.608;2022-11-02T14:33:42;3.17;;;1.10;;
70253;SDS011;57649;42.968;1.608;2022-11-02T14:44:21;3.45;;;1.48;;
70253;SDS011;57649;42.968;1.608;2022-11-02T14:49:33;10.32;;;1.33;;
70253;SDS011;57649;42.968;1.608;2022-11-02T14:52:15;5.10;;;1.40;;
70253;SDS011;57649;42.968;1.608;2022-11-02T14:55:18;6.97;;;1.35;;
70253;SDS011;57649;42.968;1.608;2022-11-02T14:57:56;5.22;;;1.20;;
70253;SDS011;57649;42.968;1.608;2022-11-02T15:02:59;5.15;;;1.60;;
70253;SDS011;57649;42.968;1.608;2022-11-02T15:07:55;2.15;;;1.10;;
70253;SDS011;57649;42.968;1.608;2022-11-02T15:18:20;3.65;;;1.50;;
70253;SDS011;57649;42.968;1.608;2022-11-02T15:31:46;3.25;;;1.05;;
70253;SDS011;57649;42.968;1.608;2022-11-02T15:34:19;4.63;;;1.02;;
70253;SDS011;57649;42.968;1.608;2022-11-02T15:36:48;5.82;;;1.15;;
70253;SDS011;57649;42.968;1.608;2022-11-02T15:39:14;9.40;;;2.03;;
70253;SDS011;57649;42.968;1.608;2022-11-02T15:44:35;5.25;;;1.92;;
70253;SDS011;57649;42.968;1.608;2022-11-02T15:50:19;5.93;;;1.88;;
70253;SDS011;57649;42.968;1.608;2022-11-02T15:52:53;5.57;;;2.03;;
70253;SDS011;57649;42.968;1.608;2022-11-02T15:55:48;7.05;;;3.65;;
70253;SDS011;57649;42.968;1.608;2022-11-02T16:03:50;5.25;;;1.77;;
70253;SDS011;57649;42.968;1.608;2022-11-02T16:06:26;5.25;;;1.52;;
70253;SDS011;57649;42.968;1.608;2022-11-02T16:09:00;5.38;;;1.55;;
70253;SDS011;57649;42.968;1.608;2022-11-02T16:11:27;4.68;;;1.80;;
70253;SDS011;57649;42.968;1.608;2022-11-02T16:14:05;7.20;;;2.45;;
70253;SDS011;57649;42.968;1.608;2022-11-02T16:16:46;3.72;;;1.50;;
70253;SDS011;57649;42.968;1.608;2022-11-02T16:19:20;3.83;;;1.35;;
70253;SDS011;57649;42.968;1.608;2022-11-02T16:21:46;7.78;;;2.30;;
70253;SDS011;57649;42.968;1.608;2022-11-02T16:24:12;9.00;;;2.03;;
70253;SDS011;57649;42.968;1.608;2022-11-02T16:26:38;5.05;;;1.50;;
70253;SDS011;57649;42.968;1.608;2022-11-02T16:29:06;5.50;;;1.75;;
70253;SDS011;57649;42.968;1.608;2022-11-02T16:31:33;3.33;;;1.42;;
70253;SDS011;57649;42.968;1.608;2022-11-02T16:34:03;3.88;;;1.52;;
70253;SDS011;57649;42.968;1.608;2022-11-02T16:36:36;7.75;;;1.90;;
70253;SDS011;57649;42.968;1.608;2022-11-02T16:41:37;4.68;;;2.33;;
70253;SDS011;57649;42.968;1.608;2022-11-02T16:44:07;5.13;;;1.73;;
70253;SDS011;57649;42.968;1.608;2022-11-02T16:49:34;10.15;;;4.30;;
70253;SDS011;57649;42.968;1.608;2022-11-02T16:52:28;5.57;;;2.50;;
70253;SDS011;57649;42.968;1.608;2022-11-02T16:54:58;5.00;;;2.70;;
70253;SDS011;57649;42.968;1.608;2022-11-02T16:57:40;5.78;;;2.35;;
70253;SDS011;57649;42.968;1.608;2022-11-02T17:00:15;6.93;;;2.72;;
70253;SDS011;57649;42.968;1.608;2022-11-02T17:02:42;5.95;;;2.28;;
70253;SDS011;57649;42.968;1.608;2022-11-02T17:07:46;6.60;;;2.58;;
70253;SDS011;57649;42.968;1.608;2022-11-02T17:10:23;5.13;;;2.20;;
70253;SDS011;57649;42.968;1.608;2022-11-02T17:12:50;6.25;;;2.63;;
70253;SDS011;57649;42.968;1.608;2022-11-02T17:15:17;7.45;;;3.10;;
70253;SDS011;57649;42.968;1.608;2022-11-02T17:20:31;6.53;;;2.85;;
70253;SDS011;57649;42.968;1.608;2022-11-02T17:22:58;4.80;;;2.47;;
70253;SDS011;57649;42.968;1.608;2022-11-02T17:25:27;5.18;;;2.60;;
70253;SDS011;57649;42.968;1.608;2022-11-02T17:27:55;6.18;;;2.20;;
70253;SDS011;57649;42.968;1.608;2022-11-02T17:33:14;9.10;;;2.90;;
70253;SDS011;57649;42.968;1.608;2022-11-02T17:35:51;7.38;;;3.72;;
70253;SDS011;57649;42.968;1.608;2022-11-02T17:38:19;8.82;;;3.75;;
70253;SDS011;57649;42.968;1.608;2022-11-02T17:40:48;10.00;;;4.00;;
70253;SDS011;57649;42.968;1.608;2022-11-02T17:43:16;6.68;;;3.65;;
70253;SDS011;57649;42.968;1.608;2022-11-02T17:45:42;8.25;;;4.30;;
70253;SDS011;57649;42.968;1.608;2022-11-02T17:48:08;12.55;;;4.20;;
70253;SDS011;57649;42.968;1.608;2022-11-02T17:50:35;8.88;;;3.72;;
70253;SDS011;57649;42.968;1.608;2022-11-02T17:53:01;8.13;;;3.92;;
70253;SDS011;57649;42.968;1.608;2022-11-02T17:55:30;10.25;;;4.53;;
70253;SDS011;57649;42.968;1.608;2022-11-02T17:57:57;12.48;;;5.47;;
70253;SDS011;57649;42.968;1.608;2022-11-02T18:00:23;10.27;;;4.53;;
70253;SDS011;57649;42.968;1.608;2022-11-02T18:02:51;9.43;;;4.10;;
70253;SDS011;57649;42.968;1.608;2022-11-02T18:05:20;14.80;;;4.53;;
70253;SDS011;57649;42.968;1.608;2022-11-02T18:07:46;11.05;;;4.30;;
70253;SDS011;57649;42.968;1.608;2022-11-02T18:10:11;8.15;;;4.80;;
70253;SDS011;57649;42.968;1.608;2022-11-02T18:12:37;9.27;;;3.88;;
70253;SDS011;57649;42.968;1.608;2022-11-02T18:15:03;11.73;;;5.40;;